sensor_id;sensor_type;location;lat;lon;timestamp;pressure;altitude;pressure_sealevel;temperature;humidity
75640;BME280;64233;51.486;6.332;2023-05-10T00:00:34;100542.13;;;11.47;100.00
75640;BME280;64233;51.486;6.332;2023-05-10T00:03:00;100546.16;;;11.50;100.00
75640;BME280;64233;51.486;6.332;2023-05-10T00:05:25;100544.81;;;11.47;100.00
75640;BME280;64233;51.486;6.332;2023-05-10T00:07:50;100539.97;;;11.44;100.00
75640;BME280;64233;51.486;6.332;2023-05-10T00:10:16;100535.34;;;11.40;100.00
75640;BME280;64233;51.486;6.332;2023-05-10T00:12:41;100535.09;;;11.41;100.00
75640;BME280;64233;51.486;6.332;2023-05-10T00:15:07;100537.81;;;11.41;100.00
75640;BME280;64233;51.486;6.332;2023-05-10T00:17:33;100536.97;;;11.41;100.00
75640;BME280;64233;51.486;6.332;2023-05-10T00:19:58;100539.38;;;11.42;100.00
75640;BME280;64233;51.486;6.332;2023-05-10T00:22:23;100542.91;;;11.48;100.00
75640;BME280;64233;51.486;6.332;2023-05-10T00:24:49;100538.63;;;11.47;100.00
75640;BME280;64233;51.486;6.332;2023-05-10T00:27:14;100546.13;;;11.45;100.00
75640;BME280;64233;51.486;6.332;2023-05-10T00:29:40;100546.13;;;11.45;100.00
75640;BME280;64233;51.486;6.332;2023-05-10T00:32:06;100544.25;;;11.45;100.00
75640;BME280;64233;51.486;6.332;2023-05-10T00:34:31;100542.66;;;11.49;100.00
75640;BME280;64233;51.486;6.332;2023-05-10T00:36:56;100544.53;;;11.49;100.00
75640;BME280;64233;51.486;6.332;2023-05-10T00:39:22;100541.03;;;11.43;100.00
75640;BME280;64233;51.486;6.332;2023-05-10T00:41:47;100546.16;;;11.50;100.00
75640;BME280;64233;51.486;6.332;2023-05-10T00:44:12;100540.22;;;11.48;100.00
75640;BME280;64233;51.486;6.332;2023-05-10T00:46:37;100537.28;;;11.44;100.00
75640;BME280;64233;51.486;6.332;2023-05-10T00:49:03;100530.81;;;11.45;100.00
75640;BME280;64233;51.486;6.332;2023-05-10T00:51:29;100540.72;;;11.40;100.00
75640;BME280;64233;51.486;6.332;2023-05-10T00:53:54;100538.03;;;11.40;100.00
75640;BME280;64233;51.486;6.332;2023-05-10T00:56:21;100539.63;;;11.30;100.00
75640;BME280;64233;51.486;6.332;2023-05-10T00:58:48;100536.94;;;11.30;100.00
75640;BME280;64233;51.486;6.332;2023-05-10T01:01:13;100542.31;;;11.30;100.00
75640;BME280;64233;51.486;6.332;2023-05-10T01:06:12;100537.19;;;11.29;100.00
75640;BME280;64233;51.486;6.332;2023-05-10T01:08:38;100541.44;;;11.19;100.00
75640;BME280;64233;51.486;6.332;2023-05-10T01:11:03;100533.38;;;11.19;100.00
75640;BME280;64233;51.486;6.332;2023-05-10T01:13:34;100538.22;;;11.17;100.00
75640;BME280;64233;51.486;6.332;2023-05-10T01:16:01;100540.94;;;11.28;100.00
75640;BME280;64233;51.486;6.332;2023-05-10T01:18:31;100544.97;;;11.25;100.00
75640;BME280;64233;51.486;6.332;2023-05-10T01:21:07;100544.44;;;11.28;100.00
75640;BME280;64233;51.486;6.332;2023-05-10T01:23:50;100541.50;;;11.30;100.00
75640;BME280;64233;51.486;6.332;2023-05-10T01:34:42;100544.75;;;11.37;100.00
75640;BME280;64233;51.486;6.332;2023-05-10T01:37:14;100535.88;;;11.36;100.00
75640;BME280;64233;51.486;6.332;2023-05-10T01:39:55;100542.06;;;11.37;100.00
75640;BME280;64233;51.486;6.332;2023-05-10T01:42:26;100538.56;;;11.31;100.00
75640;BME280;64233;51.486;6.332;2023-05-10T01:45:02;100535.59;;;11.38;100.00
75640;BME280;64233;51.486;6.332;2023-05-10T01:47:44;100539.09;;;11.33;100.00
75640;BME280;64233;51.486;6.332;2023-05-10T01:50:17;100538.81;;;11.35;100.00
75640;BME280;64233;51.486;6.332;2023-05-10T01:52:46;100533.44;;;11.30;100.00
75640;BME280;64233;51.486;6.332;2023-05-10T01:55:15;100530.75;;;11.30;100.00
75640;BME280;64233;51.486;6.332;2023-05-10T01:57:43;100536.38;;;11.28;100.00
75640;BME280;64233;51.486;6.332;2023-05-10T02:00:10;100544.44;;;11.28;100.00
75640;BME280;64233;51.486;6.332;2023-05-10T02:02:40;100543.38;;;11.29;100.00
75640;BME280;64233;51.486;6.332;2023-05-10T02:05:08;100542.56;;;11.29;100.00
75640;BME280;64233;51.486;6.332;2023-05-10T02:07:36;100546.06;;;11.29;100.00
75640;BME280;64233;51.486;6.332;2023-05-10T02:10:03;100537.47;;;11.27;100.00
75640;BME280;64233;51.486;6.332;2023-05-10T02:12:29;100546.59;;;11.26;100.00
75640;BME280;64233;51.486;6.332;2023-05-10T02:14:57;100540.41;;;11.26;100.00
75640;BME280;64233;51.486;6.332;2023-05-10T02:17:24;100546.59;;;11.26;100.00
75640;BME280;64233;51.486;6.332;2023-05-10T02:19:51;100553.00;;;11.25;100.00
75640;BME280;64233;51.486;6.332;2023-05-10T02:22:18;100551.44;;;11.29;100.00
75640;BME280;64233;51.486;6.332;2023-05-10T02:24:44;100547.91;;;11.24;100.00
75640;BME280;64233;51.486;6.332;2023-05-10T02:27:11;100555.19;;;11.28;100.00
75640;BME280;64233;51.486;6.332;2023-05-10T02:29:38;100563.50;;;11.27;100.00
75640;BME280;64233;51.486;6.332;2023-05-10T02:32:04;100550.59;;;11.24;100.00
75640;BME280;64233;51.486;6.332;2023-05-10T02:34:31;100553.28;;;11.24;100.00
75640;BME280;64233;51.486;6.332;2023-05-10T02:36:57;100551.41;;;11.24;100.00
75640;BME280;64233;51.486;6.332;2023-05-10T02:39:24;100547.09;;;11.23;100.00
75640;BME280;64233;51.486;6.332;2023-05-10T02:41:50;100549.56;;;11.30;100.00
75640;BME280;64233;51.486;6.332;2023-05-10T02:44:18;100557.31;;;11.26;100.00
75640;BME280;64233;51.486;6.332;2023-05-10T02:46:44;100554.69;;;11.31;100.00
75640;BME280;64233;51.486;6.332;2023-05-10T02:49:10;100553.00;;;11.25;100.00
75640;BME280;64233;51.486;6.332;2023-05-10T02:51:38;100555.44;;;11.27;100.00
75640;BME280;64233;51.486;6.332;2023-05-10T02:54:15;100554.63;;;11.26;100.00
75640;BME280;64233;51.486;6.332;2023-05-10T02:56:47;100556.78;;;11.24;100.00
75640;BME280;64233;51.486;6.332;2023-05-10T02:59:14;100553.00;;;11.25;100.00
75640;BME280;64233;51.486;6.332;2023-05-10T03:01:40;100555.69;;;11.25;100.00
75640;BME280;64233;51.486;6.332;2023-05-10T03:04:05;100557.31;;;11.26;100.00
75640;BME280;64233;51.486;6.332;2023-05-10T03:06:31;100559.22;;;11.26;100.00
75640;BME280;64233;51.486;6.332;2023-05-10T03:08:56;100565.91;;;11.28;100.00
75640;BME280;64233;51.486;6.332;2023-05-10T03:13:56;100563.00;;;11.30;100.00
75640;BME280;64233;51.486;6.332;2023-05-10T03:16:43;100572.13;;;11.29;100.00
75640;BME280;64233;51.486;6.332;2023-05-10T03:19:24;100567.53;;;11.29;100.00
75640;BME280;64233;51.486;6.332;2023-05-10T03:21:52;100571.34;;;11.33;100.00
75640;BME280;64233;51.486;6.332;2023-05-10T03:24:21;100574.59;;;11.35;100.00
75640;BME280;64233;51.486;6.332;2023-05-10T03:26:48;100572.16;;;11.39;100.00
75640;BME280;64233;51.486;6.332;2023-05-10T03:29:14;100580.50;;;11.37;100.00
75640;BME280;64233;51.486;6.332;2023-05-10T03:31:40;100580.50;;;11.37;100.00
75640;BME280;64233;51.486;6.332;2023-05-10T03:34:06;100574.06;;;11.39;100.00
75640;BME280;64233;51.486;6.332;2023-05-10T03:36:32;100579.16;;;11.40;100.00
75640;BME280;64233;51.486;6.332;2023-05-10T03:38:57;100580.53;;;11.43;100.00
75640;BME280;64233;51.486;6.332;2023-05-10T03:41:22;100583.75;;;11.45;100.00
75640;BME280;64233;51.486;6.332;2023-05-10T03:43:48;100586.72;;;11.43;100.00
75640;BME280;64233;51.486;6.332;2023-05-10T03:46:13;100584.56;;;11.45;100.00
75640;BME280;64233;51.486;6.332;2023-05-10T03:48:38;100589.69;;;11.47;100.00
75640;BME280;64233;51.486;6.332;2023-05-10T03:51:04;100592.91;;;11.49;100.00
75640;BME280;64233;51.486;6.332;2023-05-10T03:53:29;100592.13;;;11.48;100.00
75640;BME280;64233;51.486;6.332;2023-05-10T03:55:54;100591.81;;;11.45;100.00
75640;BME280;64233;51.486;6.332;2023-05-10T03:58:20;100601.50;;;11.46;100.00
75640;BME280;64233;51.486;6.332;2023-05-10T04:00:45;100606.06;;;11.45;100.00
75640;BME280;64233;51.486;6.332;2023-05-10T04:03:11;100607.16;;;11.44;100.00
75640;BME280;64233;51.486;6.332;2023-05-10T04:05:37;100597.19;;;11.45;100.00
75640;BME280;64233;51.486;6.332;2023-05-10T04:08:02;100601.50;;;11.46;100.00
75640;BME280;64233;51.486;6.332;2023-05-10T04:10:28;100594.81;;;11.48;100.00
75640;BME280;64233;51.486;6.332;2023-05-10T04:12:53;100599.88;;;11.45;100.00
75640;BME280;64233;51.486;6.332;2023-05-10T04:15:19;100599.34;;;11.43;100.00
75640;BME280;64233;51.486;6.332;2023-05-10T04:17:44;100605.53;;;11.43;100.00
75640;BME280;64233;51.486;6.332;2023-05-10T04:20:10;100607.94;;;11.45;100.00
75640;BME280;64233;51.486;6.332;2023-05-10T04:22:35;100609.31;;;11.47;100.00
75640;BME280;64233;51.486;6.332;2023-05-10T04:25:00;100606.31;;;11.44;100.00
75640;BME280;64233;51.486;6.332;2023-05-10T04:27:26;100605.00;;;11.46;100.00
75640;BME280;64233;51.486;6.332;2023-05-10T04:29:51;100606.63;;;11.47;100.00
75640;BME280;64233;51.486;6.332;2023-05-10T04:32:16;100611.72;;;11.49;100.00
75640;BME280;64233;51.486;6.332;2023-05-10T04:34:42;100616.59;;;11.52;100.00
75640;BME280;64233;51.486;6.332;2023-05-10T04:37:08;100614.94;;;11.51;100.00
75640;BME280;64233;51.486;6.332;2023-05-10T04:39:33;100619.78;;;11.49;100.00
75640;BME280;64233;51.486;6.332;2023-05-10T04:41:59;100613.06;;;11.46;100.00
75640;BME280;64233;51.486;6.332;2023-05-10T04:44:24;100625.97;;;11.49;100.00
75640;BME280;64233;51.486;6.332;2023-05-10T04:46:49;100621.69;;;11.48;100.00
75640;BME280;64233;51.486;6.332;2023-05-10T04:49:14;100615.47;;;11.48;100.00
75640;BME280;64233;51.486;6.332;2023-05-10T04:51:40;100623.00;;;11.46;100.00
75640;BME280;64233;51.486;6.332;2023-05-10T04:54:05;100616.84;;;11.50;100.00
75640;BME280;64233;51.486;6.332;2023-05-10T04:56:30;100623.00;;;11.46;100.00
75640;BME280;64233;51.486;6.332;2023-05-10T04:58:55;100615.75;;;11.46;100.00
75640;BME280;64233;51.486;6.332;2023-05-10T05:01:21;100615.47;;;11.48;100.00
75640;BME280;64233;51.486;6.332;2023-05-10T05:03:48;100623.84;;;11.51;100.00
75640;BME280;64233;51.486;6.332;2023-05-10T05:06:13;100615.47;;;11.48;100.00
75640;BME280;64233;51.486;6.332;2023-05-10T05:08:38;100633.25;;;11.49;100.00
75640;BME280;64233;51.486;6.332;2023-05-10T05:11:03;100616.03;;;11.50;100.00
75640;BME280;64233;51.486;6.332;2023-05-10T05:13:29;100622.22;;;11.50;100.00
75640;BME280;64233;51.486;6.332;2023-05-10T05:15:54;100632.97;;;11.50;100.00
75640;BME280;64233;51.486;6.332;2023-05-10T05:18:19;100632.41;;;11.43;100.00
75640;BME280;64233;51.486;6.332;2023-05-10T05:20:45;100635.91;;;11.49;100.00
75640;BME280;64233;51.486;6.332;2023-05-10T05:23:10;100634.88;;;11.50;100.00
75640;BME280;64233;51.486;6.332;2023-05-10T05:25:35;100635.91;;;11.49;100.00
75640;BME280;64233;51.486;6.332;2023-05-10T05:28:01;100635.91;;;11.49;100.00
75640;BME280;64233;51.486;6.332;2023-05-10T05:30:26;100641.81;;;11.46;100.00
75640;BME280;64233;51.486;6.332;2023-05-10T05:32:51;100651.53;;;11.52;100.00
75640;BME280;64233;51.486;6.332;2023-05-10T05:35:17;100648.81;;;11.47;100.00
75640;BME280;64233;51.486;6.332;2023-05-10T05:37:42;100644.25;;;11.47;100.00
75640;BME280;64233;51.486;6.332;2023-05-10T05:40:08;100645.88;;;11.53;100.00
75640;BME280;64233;51.486;6.332;2023-05-10T05:42:33;100651.53;;;11.52;100.00
75640;BME280;64233;51.486;6.332;2023-05-10T05:44:58;100651.53;;;11.52;100.00
75640;BME280;64233;51.486;6.332;2023-05-10T05:47:24;100655.78;;;11.48;100.00
75640;BME280;64233;51.486;6.332;2023-05-10T05:49:49;100655.84;;;11.53;100.00
75640;BME280;64233;51.486;6.332;2023-05-10T05:52:14;100652.38;;;11.58;100.00
75640;BME280;64233;51.486;6.332;2023-05-10T05:54:40;100656.09;;;11.51;100.00
75640;BME280;64233;51.486;6.332;2023-05-10T05:57:05;100659.63;;;11.57;100.00
75640;BME280;64233;51.486;6.332;2023-05-10T05:59:30;100664.22;;;11.62;100.00
75640;BME280;64233;51.486;6.332;2023-05-10T06:01:55;100656.69;;;11.59;100.00
75640;BME280;64233;51.486;6.332;2023-05-10T06:04:21;100659.63;;;11.57;100.00
75640;BME280;64233;51.486;6.332;2023-05-10T06:06:46;100662.63;;;11.66;100.00
75640;BME280;64233;51.486;6.332;2023-05-10T06:09:11;100669.38;;;11.68;100.00
75640;BME280;64233;51.486;6.332;2023-05-10T06:11:37;100674.75;;;11.74;100.00
75640;BME280;64233;51.486;6.332;2023-05-10T06:14:03;100663.47;;;11.71;100.00
75640;BME280;64233;51.486;6.332;2023-05-10T06:16:33;100678.53;;;11.73;100.00
75640;BME280;64233;51.486;6.332;2023-05-10T06:18:58;100674.75;;;11.68;100.00
75640;BME280;64233;51.486;6.332;2023-05-10T06:21:24;100675.00;;;11.67;100.00
75640;BME280;64233;51.486;6.332;2023-05-10T06:23:49;100685.25;;;11.70;100.00
75640;BME280;64233;51.486;6.332;2023-05-10T06:26:15;100686.88;;;11.71;100.00
75640;BME280;64233;51.486;6.332;2023-05-10T06:28:40;100686.59;;;11.73;100.00
75640;BME280;64233;51.486;6.332;2023-05-10T06:31:06;100694.09;;;11.70;100.00
75640;BME280;64233;51.486;6.332;2023-05-10T06:33:31;100697.09;;;11.79;100.00
75640;BME280;64233;51.486;6.332;2023-05-10T06:35:57;100692.75;;;11.68;100.00
75640;BME280;64233;51.486;6.332;2023-05-10T06:38:22;100691.72;;;11.74;100.00
75640;BME280;64233;51.486;6.332;2023-05-10T06:40:48;100693.25;;;11.65;100.00
75640;BME280;64233;51.486;6.332;2023-05-10T06:43:13;100699.22;;;11.67;100.00
75640;BME280;64233;51.486;6.332;2023-05-10T06:45:39;100695.25;;;11.80;100.00
75640;BME280;64233;51.486;6.332;2023-05-10T06:48:04;100695.78;;;11.82;100.00
75640;BME280;64233;51.486;6.332;2023-05-10T06:50:29;100699.88;;;11.89;100.00
75640;BME280;64233;51.486;6.332;2023-05-10T06:52:55;100697.53;;;11.98;100.00
75640;BME280;64233;51.486;6.332;2023-05-10T06:55:20;100709.66;;;12.06;100.00
75640;BME280;64233;51.486;6.332;2023-05-10T06:57:46;100706.66;;;11.97;100.00
75640;BME280;64233;51.486;6.332;2023-05-10T07:00:12;100699.16;;;11.99;100.00
75640;BME280;64233;51.486;6.332;2023-05-10T07:02:38;100706.13;;;12.00;100.00
75640;BME280;64233;51.486;6.332;2023-05-10T07:05:04;100709.06;;;11.94;100.00
75640;BME280;64233;51.486;6.332;2023-05-10T07:07:29;100709.34;;;11.97;100.00
75640;BME280;64233;51.486;6.332;2023-05-10T07:09:54;100708.97;;;11.83;100.00
75640;BME280;64233;51.486;6.332;2023-05-10T07:12:21;100721.00;;;11.70;100.00
75640;BME280;64233;51.486;6.332;2023-05-10T07:14:46;100724.44;;;11.61;100.00
75640;BME280;64233;51.486;6.332;2023-05-10T07:17:12;100723.81;;;11.48;100.00
75640;BME280;64233;51.486;6.332;2023-05-10T07:19:37;100729.16;;;11.43;100.00
75640;BME280;64233;51.486;6.332;2023-05-10T07:22:02;100729.75;;;11.50;100.00
75640;BME280;64233;51.486;6.332;2023-05-10T07:24:28;100728.63;;;11.41;100.00
75640;BME280;64233;51.486;6.332;2023-05-10T07:26:53;100723.50;;;11.45;100.00
75640;BME280;64233;51.486;6.332;2023-05-10T07:29:18;100723.81;;;11.48;100.00
75640;BME280;64233;51.486;6.332;2023-05-10T07:31:43;100729.31;;;11.64;100.00
75640;BME280;64233;51.486;6.332;2023-05-10T07:34:09;100730.72;;;11.77;100.00
75640;BME280;64233;51.486;6.332;2023-05-10T07:36:34;100729.66;;;11.78;100.00
75640;BME280;64233;51.486;6.332;2023-05-10T07:39:00;100726.81;;;11.95;100.00
75640;BME280;64233;51.486;6.332;2023-05-10T07:41:25;100725.53;;;12.02;100.00
75640;BME280;64233;51.486;6.332;2023-05-10T07:43:51;100727.13;;;12.03;100.00
75640;BME280;64233;51.486;6.332;2023-05-10T07:46:16;100728.78;;;12.10;100.00
75640;BME280;64233;51.486;6.332;2023-05-10T07:48:41;100732.06;;;12.22;100.00
75640;BME280;64233;51.486;6.332;2023-05-10T07:51:06;100735.09;;;12.41;100.00
75640;BME280;64233;51.486;6.332;2023-05-10T07:53:34;100729.78;;;12.62;100.00
75640;BME280;64233;51.486;6.332;2023-05-10T07:56:20;100732.50;;;12.72;100.00
75640;BME280;64233;51.486;6.332;2023-05-10T07:58:46;100743.81;;;12.79;100.00
75640;BME280;64233;51.486;6.332;2023-05-10T08:01:11;100740.06;;;12.90;100.00
75640;BME280;64233;51.486;6.332;2023-05-10T08:03:36;100737.06;;;12.77;100.00
75640;BME280;64233;51.486;6.332;2023-05-10T08:06:02;100748.13;;;12.75;100.00
75640;BME280;64233;51.486;6.332;2023-05-10T08:08:27;100750.53;;;12.77;100.00
75640;BME280;64233;51.486;6.332;2023-05-10T08:10:52;100746.25;;;12.81;100.00
75640;BME280;64233;51.486;6.332;2023-05-10T08:13:17;100755.13;;;12.81;100.00
75640;BME280;64233;51.486;6.332;2023-05-10T08:15:43;100759.47;;;12.87;100.00
75640;BME280;64233;51.486;6.332;2023-05-10T08:18:08;100759.19;;;12.79;100.00
75640;BME280;64233;51.486;6.332;2023-05-10T08:20:33;100764.03;;;12.82;100.00
75640;BME280;64233;51.486;6.332;2023-05-10T08:22:58;100767.25;;;12.84;100.00
75640;BME280;64233;51.486;6.332;2023-05-10T08:25:24;100765.09;;;12.70;100.00
75640;BME280;64233;51.486;6.332;2023-05-10T08:27:49;100768.31;;;12.72;100.00
75640;BME280;64233;51.486;6.332;2023-05-10T08:30:14;100771.22;;;12.55;100.00
75640;BME280;64233;51.486;6.332;2023-05-10T08:32:40;100782.25;;;12.54;100.00
75640;BME280;64233;51.486;6.332;2023-05-10T08:35:05;100782.78;;;12.51;100.00
75640;BME280;64233;51.486;6.332;2023-05-10T08:37:30;100788.69;;;12.48;100.00
75640;BME280;64233;51.486;6.332;2023-05-10T08:39:57;100779.72;;;12.32;100.00
75640;BME280;64233;51.486;6.332;2023-05-10T08:42:25;100789.72;;;12.36;100.00
75640;BME280;64233;51.486;6.332;2023-05-10T08:44:54;100780.25;;;12.23;100.00
75640;BME280;64233;51.486;6.332;2023-05-10T08:47:21;100783.16;;;12.17;100.00
75640;BME280;64233;51.486;6.332;2023-05-10T08:49:47;100790.75;;;12.25;100.00
75640;BME280;64233;51.486;6.332;2023-05-10T08:52:16;100793.94;;;12.17;100.00
75640;BME280;64233;51.486;6.332;2023-05-10T08:54:42;100795.56;;;12.18;100.00
75640;BME280;64233;51.486;6.332;2023-05-10T08:57:08;100802.84;;;12.22;100.00
75640;BME280;64233;51.486;6.332;2023-05-10T08:59:33;100806.34;;;12.23;100.00
75640;BME280;64233;51.486;6.332;2023-05-10T09:01:59;100807.16;;;12.29;100.00
75640;BME280;64233;51.486;6.332;2023-05-10T09:04:25;100816.00;;;12.19;100.00
75640;BME280;64233;51.486;6.332;2023-05-10T09:06:51;100822.16;;;12.14;100.00
75640;BME280;64233;51.486;6.332;2023-05-10T09:09:17;100815.19;;;12.18;100.00
75640;BME280;64233;51.486;6.332;2023-05-10T09:11:43;100817.13;;;12.28;100.00
75640;BME280;64233;51.486;6.332;2023-05-10T09:14:09;100820.94;;;12.32;100.00
75640;BME280;64233;51.486;6.332;2023-05-10T09:16:35;100822.00;;;12.31;100.00
75640;BME280;64233;51.486;6.332;2023-05-10T09:19:00;100822.16;;;12.14;100.00
75640;BME280;64233;51.486;6.332;2023-05-10T09:21:26;100834.84;;;12.19;100.00
75640;BME280;64233;51.486;6.332;2023-05-10T09:23:51;100833.81;;;12.25;100.00
75640;BME280;64233;51.486;6.332;2023-05-10T09:26:22;100826.31;;;12.32;100.00
75640;BME280;64233;51.486;6.332;2023-05-10T09:28:56;100841.44;;;12.49;100.00
75640;BME280;64233;51.486;6.332;2023-05-10T09:31:21;100834.16;;;12.39;100.00
75640;BME280;64233;51.486;6.332;2023-05-10T09:33:48;100835.44;;;12.31;100.00
75640;BME280;64233;51.486;6.332;2023-05-10T09:36:14;100846.53;;;12.40;100.00
75640;BME280;64233;51.486;6.332;2023-05-10T09:41:18;100844.94;;;12.44;100.00
75640;BME280;64233;51.486;6.332;2023-05-10T09:43:44;100849.75;;;12.37;100.00
75640;BME280;64233;51.486;6.332;2023-05-10T09:46:09;100844.66;;;12.46;100.00
75640;BME280;64233;51.486;6.332;2023-05-10T09:48:41;100857.56;;;12.38;100.00
75640;BME280;64233;51.486;6.332;2023-05-10T09:51:07;100856.19;;;12.36;100.00
75640;BME280;64233;51.486;6.332;2023-05-10T09:53:32;100851.94;;;12.45;100.00
75640;BME280;64233;51.486;6.332;2023-05-10T09:55:57;100850.97;;;12.67;100.00
75640;BME280;64233;51.486;6.332;2023-05-10T09:58:23;100857.09;;;12.57;100.00
75640;BME280;64233;51.486;6.332;2023-05-10T10:00:48;100851.53;;;12.69;100.00
75640;BME280;64233;51.486;6.332;2023-05-10T10:03:21;100857.75;;;12.80;100.00
75640;BME280;64233;51.486;6.332;2023-05-10T10:05:47;100859.94;;;12.88;100.00
75640;BME280;64233;51.486;6.332;2023-05-10T10:08:13;100858.84;;;12.79;100.00
75640;BME280;64233;51.486;6.332;2023-05-10T10:10:39;100853.88;;;12.60;100.00
75640;BME280;64233;51.486;6.332;2023-05-10T10:13:10;100854.75;;;12.71;100.00
75640;BME280;64233;51.486;6.332;2023-05-10T10:15:35;100852.59;;;12.68;100.00
75640;BME280;64233;51.486;6.332;2023-05-10T10:18:00;100852.88;;;12.77;100.00
75640;BME280;64233;51.486;6.332;2023-05-10T10:20:28;100853.38;;;12.68;100.00
75640;BME280;64233;51.486;6.332;2023-05-10T10:22:54;100860.13;;;12.71;100.00
75640;BME280;64233;51.486;6.332;2023-05-10T10:25:20;100864.53;;;12.87;100.00
75640;BME280;64233;51.486;6.332;2023-05-10T10:35:52;100861.88;;;13.03;100.00
75640;BME280;64233;51.486;6.332;2023-05-10T10:38:17;100860.53;;;13.05;100.00
75640;BME280;64233;51.486;6.332;2023-05-10T10:40:43;100863.00;;;13.17;100.00
75640;BME280;64233;51.486;6.332;2023-05-10T10:43:22;100870.25;;;13.12;100.00
75640;BME280;64233;51.486;6.332;2023-05-10T10:48:49;100875.88;;;13.00;100.00
75640;BME280;64233;51.486;6.332;2023-05-10T10:51:16;100877.22;;;12.97;100.00
75640;BME280;64233;51.486;6.332;2023-05-10T10:53:42;100871.00;;;12.91;100.00
75640;BME280;64233;51.486;6.332;2023-05-10T10:56:12;100876.13;;;12.98;100.00
75640;BME280;64233;51.486;6.332;2023-05-10T10:58:39;100876.94;;;12.94;100.00
75640;BME280;64233;51.486;6.332;2023-05-10T11:03:36;100878.09;;;13.18;100.00
75640;BME280;64233;51.486;6.332;2023-05-10T11:06:02;100873.47;;;13.03;100.00
75640;BME280;64233;51.486;6.332;2023-05-10T11:08:32;100884.50;;;13.02;100.00
75640;BME280;64233;51.486;6.332;2023-05-10T11:18:39;100884.28;;;13.19;100.00
75640;BME280;64233;51.486;6.332;2023-05-10T11:21:04;100878.84;;;13.03;100.00
75640;BME280;64233;51.486;6.332;2023-05-10T11:26:08;100878.72;;;13.46;100.00
75640;BME280;64233;51.486;6.332;2023-05-10T11:28:44;100882.19;;;13.47;100.00
75640;BME280;64233;51.486;6.332;2023-05-10T11:31:10;100881.16;;;13.42;100.00
75640;BME280;64233;51.486;6.332;2023-05-10T11:36:15;100885.75;;;13.78;100.00
75640;BME280;64233;51.486;6.332;2023-05-10T11:38:40;100883.88;;;13.99;100.00
75640;BME280;64233;51.486;6.332;2023-05-10T11:41:08;100891.13;;;14.19;100.00
75640;BME280;64233;51.486;6.332;2023-05-10T11:43:35;100881.94;;;14.20;100.00
75640;BME280;64233;51.486;6.332;2023-05-10T11:46:01;100885.94;;;14.49;100.00
75640;BME280;64233;51.486;6.332;2023-05-10T11:48:29;100892.41;;;14.58;100.00
75640;BME280;64233;51.486;6.332;2023-05-10T11:50:54;100888.38;;;14.40;100.00
75640;BME280;64233;51.486;6.332;2023-05-10T11:53:22;100887.56;;;14.55;100.00
75640;BME280;64233;51.486;6.332;2023-05-10T11:55:47;100884.56;;;14.67;100.00
75640;BME280;64233;51.486;6.332;2023-05-10T11:58:13;100892.63;;;14.77;100.00
75640;BME280;64233;51.486;6.332;2023-05-10T12:00:38;100892.97;;;14.44;100.00
75640;BME280;64233;51.486;6.332;2023-05-10T12:03:04;100888.44;;;14.19;100.00
75640;BME280;64233;51.486;6.332;2023-05-10T12:05:32;100891.16;;;14.04;100.00
75640;BME280;64233;51.486;6.332;2023-05-10T12:08:19;100890.88;;;14.05;100.00
75640;BME280;64233;51.486;6.332;2023-05-10T12:10:45;100894.09;;;14.12;100.00
75640;BME280;64233;51.486;6.332;2023-05-10T12:13:11;100890.63;;;13.97;100.00
75640;BME280;64233;51.486;6.332;2023-05-10T12:15:38;100892.50;;;14.06;100.00
75640;BME280;64233;51.486;6.332;2023-05-10T12:18:03;100901.13;;;13.93;100.00
75640;BME280;64233;51.486;6.332;2023-05-10T12:20:30;100898.16;;;13.84;100.00
75640;BME280;64233;51.486;6.332;2023-05-10T12:22:57;100894.94;;;13.82;100.00
75640;BME280;64233;51.486;6.332;2023-05-10T12:25:24;100899.78;;;13.85;100.00
75640;BME280;64233;51.486;6.332;2023-05-10T12:27:56;100901.66;;;13.85;100.00
75640;BME280;64233;51.486;6.332;2023-05-10T12:30:26;100890.59;;;13.86;100.00
75640;BME280;64233;51.486;6.332;2023-05-10T12:32:52;100896.81;;;13.76;100.00
75640;BME280;64233;51.486;6.332;2023-05-10T12:35:18;100893.84;;;13.88;100.00
75640;BME280;64233;51.486;6.332;2023-05-10T12:37:49;100903.56;;;13.84;100.00
75640;BME280;64233;51.486;6.332;2023-05-10T12:40:14;100898.19;;;13.89;100.00
75640;BME280;64233;51.486;6.332;2023-05-10T12:42:40;100896.28;;;13.95;100.00
75640;BME280;64233;51.486;6.332;2023-05-10T12:45:06;100901.09;;;14.19;100.00
75640;BME280;64233;51.486;6.332;2023-05-10T12:47:32;100907.56;;;14.43;100.00
75640;BME280;64233;51.486;6.332;2023-05-10T12:49:57;100905.88;;;14.73;100.00
75640;BME280;64233;51.486;6.332;2023-05-10T12:52:24;100912.13;;;14.43;100.00
75640;BME280;64233;51.486;6.332;2023-05-10T12:54:49;100906.97;;;14.57;100.00
75640;BME280;64233;51.486;6.332;2023-05-10T12:57:15;100900.75;;;14.72;100.00
75640;BME280;64233;51.486;6.332;2023-05-10T12:59:40;100899.38;;;14.79;100.00
75640;BME280;64233;51.486;6.332;2023-05-10T13:02:06;100893.72;;;14.71;100.00
75640;BME280;64233;51.486;6.332;2023-05-10T13:04:31;100901.56;;;14.67;100.00
75640;BME280;64233;51.486;6.332;2023-05-10T13:06:57;100901.84;;;14.76;100.00
75640;BME280;64233;51.486;6.332;2023-05-10T13:09:24;100908.88;;;14.67;100.00
75640;BME280;64233;51.486;6.332;2023-05-10T13:11:50;100906.19;;;14.56;100.00
75640;BME280;64233;51.486;6.332;2023-05-10T13:14:15;100902.34;;;14.83;100.00
75640;BME280;64233;51.486;6.332;2023-05-10T13:16:41;100914.88;;;15.19;100.00
75640;BME280;64233;51.486;6.332;2023-05-10T13:19:06;100909.09;;;14.80;100.00